createdAt,value
2019-01-11T00:00:21.491Z,82.99
2019-01-11T00:01:21.494Z,83.20
2019-01-11T00:02:21.468Z,82.46
2019-01-11T00:03:21.453Z,81.84
2019-01-11T00:04:21.460Z,81.95
2019-01-11T00:05:21.440Z,81.00
2019-01-11T00:06:21.424Z,81.42
2019-01-11T00:07:21.433Z,82.78
2019-01-11T00:08:21.404Z,81.84
2019-01-11T00:09:21.394Z,81.42
2019-01-11T00:10:21.388Z,81.42
2019-01-11T00:11:21.385Z,81.73
2019-01-11T00:12:21.369Z,81.32
2019-01-11T00:13:21.372Z,81.73
2019-01-11T00:14:21.343Z,81.52
2019-01-11T00:15:21.330Z,81.73
2019-01-11T00:16:21.337Z,81.63
2019-01-11T00:17:21.315Z,82.36
2019-01-11T00:18:21.299Z,81.95
2019-01-11T00:19:21.307Z,82.15
2019-01-11T00:20:21.283Z,82.78
2019-01-11T00:21:21.270Z,82.89
2019-01-11T00:22:21.258Z,83.30
2019-01-11T00:23:21.249Z,84.24
2019-01-11T00:24:21.239Z,84.17
2019-01-11T00:25:21.251Z,83.23
2019-01-11T00:26:21.220Z,83.65
2019-01-11T00:27:21.211Z,83.30
2019-01-11T00:28:21.201Z,82.78
2019-01-11T00:29:21.195Z,82.36
2019-01-11T00:30:21.175Z,82.46
2019-01-11T00:31:21.178Z,81.42
2019-01-11T00:32:21.155Z,82.26
2019-01-11T00:33:21.149Z,83.30
2019-01-11T00:34:21.134Z,83.83
2019-01-11T00:35:21.127Z,83.30
2019-01-11T00:36:21.117Z,83.30
2019-01-11T00:37:21.114Z,83.93
2019-01-11T00:38:21.102Z,84.28
2019-01-11T00:39:21.085Z,84.28
2019-01-11T00:40:21.066Z,85.08
2019-01-11T00:41:21.062Z,85.01
2019-01-11T00:42:21.054Z,84.66
2019-01-11T00:43:21.069Z,83.72
2019-01-11T00:44:21.028Z,83.20
2019-01-11T00:45:21.015Z,82.78
2019-01-11T00:46:21.009Z,83.20
2019-01-11T00:47:21.006Z,83.20
2019-01-11T00:48:20.987Z,83.40
2019-01-11T00:49:20.996Z,83.20
2019-01-11T00:50:20.991Z,83.34
2019-01-11T00:51:20.961Z,83.93
2019-01-11T00:52:20.949Z,84.45
2019-01-11T00:53:20.935Z,83.51
2019-01-11T00:54:20.923Z,83.20
2019-01-11T00:55:20.930Z,82.89
2019-01-11T00:56:20.905Z,82.78
2019-01-11T00:57:20.897Z,82.89
2019-01-11T00:58:20.881Z,83.62
2019-01-11T00:59:20.871Z,83.40
2019-01-11T01:00:20.862Z,83.62
2019-01-11T01:01:20.869Z,83.86
2019-01-11T01:02:20.835Z,84.07
2019-01-11T01:03:20.840Z,83.30
2019-01-11T01:04:20.823Z,83.30
2019-01-11T01:05:20.807Z,83.20
2019-01-11T01:06:20.800Z,83.72
2019-01-11T01:07:20.820Z,84.34
2019-01-11T01:08:20.780Z,83.93
2019-01-11T01:09:20.785Z,84.24
2019-01-11T01:10:20.752Z,82.99
2019-01-11T01:11:20.746Z,83.40
2019-01-11T01:12:20.733Z,83.20
2019-01-11T01:13:20.749Z,83.62
2019-01-11T01:14:20.711Z,82.99
2019-01-11T01:15:20.701Z,83.51
2019-01-11T01:16:20.697Z,83.51
2019-01-11T01:17:20.685Z,82.99
2019-01-11T01:18:20.672Z,82.26
2019-01-11T01:19:21.156Z,82.01
2019-01-11T01:20:20.648Z,82.74
2019-01-11T01:21:20.638Z,81.95
2019-01-11T01:22:20.632Z,81.84
2019-01-11T01:23:20.614Z,82.22
2019-01-11T01:24:20.609Z,81.90
2019-01-11T01:25:20.613Z,82.22
2019-01-11T01:26:20.587Z,82.12
2019-01-11T01:27:20.581Z,81.70
2019-01-11T01:28:20.564Z,82.01
2019-01-11T01:29:20.558Z,81.59
2019-01-11T01:30:20.539Z,82.05
2019-01-11T01:31:20.551Z,82.89
2019-01-11T01:32:20.553Z,82.67
2019-01-11T01:33:20.513Z,83.51
2019-01-11T01:34:20.507Z,82.89
2019-01-11T01:35:20.484Z,82.67
2019-01-11T01:36:20.485Z,82.67
2019-01-11T01:37:20.487Z,82.67
2019-01-11T01:38:20.459Z,81.95
2019-01-11T01:39:20.451Z,82.26
2019-01-11T01:40:20.442Z,82.36
2019-01-11T01:41:20.429Z,82.78
2019-01-11T01:42:20.429Z,83.30
2019-01-11T01:43:20.429Z,83.20
2019-01-11T01:44:20.397Z,82.67
2019-01-11T01:45:20.388Z,81.95
2019-01-11T01:46:20.383Z,82.46
2019-01-11T01:47:20.370Z,82.05
2019-01-11T01:48:20.356Z,82.36
2019-01-11T01:49:26.387Z,82.05
2019-01-11T01:50:21.339Z,82.26
2019-01-11T01:51:20.326Z,82.15
2019-01-11T01:52:20.316Z,82.78
2019-01-11T01:53:20.310Z,83.62
2019-01-11T01:54:20.288Z,83.03
2019-01-11T01:55:20.304Z,82.50
2019-01-11T01:56:20.271Z,82.82
2019-01-11T01:57:20.264Z,82.09
2019-01-11T01:58:20.265Z,83.44
2019-01-11T01:59:20.240Z,83.65
2019-01-11T02:00:20.233Z,82.92
2019-01-11T02:01:20.269Z,83.13
2019-01-11T02:02:20.211Z,83.30
2019-01-11T02:03:27.241Z,82.89
2019-01-11T02:04:20.182Z,82.89
2019-01-11T02:05:20.182Z,82.99
2019-01-11T02:06:20.178Z,82.71
2019-01-11T02:07:20.175Z,83.03
2019-01-11T02:08:20.153Z,83.40
2019-01-11T02:09:20.152Z,83.62
2019-01-11T02:10:20.127Z,83.20
2019-01-11T02:11:20.133Z,83.62
2019-01-11T02:12:20.112Z,83.40
2019-01-11T02:13:20.134Z,82.99
2019-01-11T02:14:20.089Z,83.30
2019-01-11T02:15:20.076Z,83.30
2019-01-11T02:16:20.064Z,83.34
2019-01-11T02:17:20.057Z,83.65
2019-01-11T02:18:20.040Z,84.07
2019-01-11T02:19:20.053Z,83.80
2019-01-11T02:20:20.041Z,83.27
2019-01-11T02:21:20.018Z,83.44
2019-01-11T02:22:20.001Z,83.76
2019-01-11T02:23:19.989Z,83.86
2019-01-11T02:24:20.005Z,83.55
2019-01-11T02:25:19.993Z,83.55
2019-01-11T02:26:19.963Z,82.92
2019-01-11T02:27:19.952Z,82.92
2019-01-11T02:28:19.938Z,83.13
2019-01-11T02:29:19.935Z,83.44
2019-01-11T02:30:19.924Z,83.34
2019-01-11T02:31:19.945Z,83.13
2019-01-11T02:32:19.902Z,83.09
2019-01-11T02:33:24.844Z,82.89
2019-01-11T02:34:20.874Z,82.67
2019-01-11T02:35:19.877Z,83.20
2019-01-11T02:36:19.861Z,82.67
2019-01-11T02:37:19.889Z,82.99
2019-01-11T02:38:19.832Z,83.09
2019-01-11T02:39:19.824Z,83.40
2019-01-11T02:40:19.816Z,82.05
2019-01-11T02:41:19.801Z,82.26
2019-01-11T02:42:19.800Z,82.05
2019-01-11T02:43:19.795Z,82.99
2019-01-11T02:44:19.766Z,82.99
2019-01-11T02:45:19.765Z,82.99
2019-01-11T02:46:19.752Z,82.89
2019-01-11T02:47:19.743Z,83.20
2019-01-11T02:48:19.732Z,82.46
2019-01-11T02:49:19.739Z,82.67
2019-01-11T02:50:19.705Z,82.05
2019-01-11T02:51:19.697Z,81.52
2019-01-11T02:52:19.682Z,81.11
2019-01-11T02:53:19.675Z,81.73
2019-01-11T02:54:19.662Z,81.84
2019-01-11T02:55:19.669Z,81.95
2019-01-11T02:56:19.641Z,82.05
2019-01-11T02:57:19.626Z,82.05
2019-01-11T02:58:19.651Z,82.15
2019-01-11T02:59:19.610Z,81.25
2019-01-11T03:00:19.601Z,80.62
2019-01-11T03:01:19.606Z,81.60
2019-01-11T03:02:19.588Z,81.39
2019-01-11T03:03:19.571Z,82.33
2019-01-11T03:04:19.561Z,83.06
2019-01-11T03:05:19.547Z,84.32
2019-01-11T03:06:19.539Z,83.90
2019-01-11T03:07:19.555Z,84.07
2019-01-11T03:08:19.528Z,84.17
2019-01-11T03:09:19.509Z,83.62
2019-01-11T03:10:19.520Z,83.40
2019-01-11T03:11:19.490Z,82.89
2019-01-11T03:12:19.475Z,83.20
2019-01-11T03:13:19.481Z,83.03
2019-01-11T03:14:19.453Z,82.89
2019-01-11T03:15:19.446Z,82.46
2019-01-11T03:16:19.424Z,82.40
2019-01-11T03:17:19.435Z,83.03
2019-01-11T03:18:19.414Z,82.99
2019-01-11T03:19:19.419Z,83.03
2019-01-11T03:20:19.392Z,82.92
2019-01-11T03:21:19.379Z,83.23
2019-01-11T03:22:19.368Z,83.13
2019-01-11T03:23:19.367Z,83.34
2019-01-11T03:24:19.358Z,83.30
2019-01-11T03:25:19.350Z,82.89
2019-01-11T03:26:19.337Z,82.78
2019-01-11T03:27:19.329Z,82.36
2019-01-11T03:28:19.302Z,82.57
2019-01-11T03:29:19.289Z,83.23
2019-01-11T03:30:19.301Z,83.13
2019-01-11T03:31:19.284Z,83.23
2019-01-11T03:32:19.271Z,83.65
2019-01-11T03:33:19.269Z,83.44
2019-01-11T03:34:19.241Z,84.32
2019-01-11T03:35:19.235Z,84.28
2019-01-11T03:36:19.213Z,84.07
2019-01-11T03:37:19.219Z,83.55
2019-01-11T03:38:19.195Z,83.93
2019-01-11T03:39:19.191Z,83.55
2019-01-11T03:40:19.175Z,82.57
2019-01-11T03:41:19.174Z,82.99
2019-01-11T03:42:19.184Z,83.20
2019-01-11T03:43:19.190Z,83.20
2019-01-11T03:44:19.130Z,83.20
2019-01-11T03:45:19.131Z,83.20
2019-01-11T03:46:19.117Z,82.82
2019-01-11T03:47:19.106Z,82.92
2019-01-11T03:48:19.091Z,82.05
2019-01-11T03:49:19.107Z,83.03
2019-01-11T03:50:19.085Z,82.78
2019-01-11T03:51:19.053Z,83.62
2019-01-11T03:52:19.048Z,83.09
2019-01-11T03:53:19.043Z,82.36
2019-01-11T03:54:19.027Z,82.19
2019-01-11T03:55:19.053Z,82.15
2019-01-11T03:56:19.003Z,82.19
2019-01-11T03:57:19.005Z,82.67
2019-01-11T03:58:18.976Z,82.36
2019-01-11T03:59:18.978Z,82.57
2019-01-11T04:00:18.960Z,82.78
2019-01-11T04:01:18.973Z,81.84
2019-01-11T04:02:18.938Z,81.98
2019-01-11T04:03:18.925Z,82.09
2019-01-11T04:04:18.921Z,82.71
2019-01-11T04:05:18.905Z,82.60
2019-01-11T04:06:18.899Z,82.50
2019-01-11T04:07:18.903Z,82.40
2019-01-11T04:08:18.881Z,82.46
2019-01-11T04:09:18.913Z,82.82
2019-01-11T04:10:18.857Z,82.71
2019-01-11T04:11:18.843Z,82.71
2019-01-11T04:12:18.839Z,82.82
2019-01-11T04:13:18.867Z,83.23
2019-01-11T04:14:18.814Z,83.13
2019-01-11T04:15:18.798Z,82.92
2019-01-11T04:16:18.792Z,83.17
2019-01-11T04:17:18.799Z,83.69
2019-01-11T04:18:18.775Z,83.38
2019-01-11T04:19:18.776Z,83.69
2019-01-11T04:20:18.771Z,83.59
2019-01-11T04:21:18.739Z,84.05
2019-01-11T04:22:18.730Z,84.36
2019-01-11T04:23:18.715Z,84.78
2019-01-11T04:24:18.710Z,84.56
2019-01-11T04:25:18.729Z,84.25
2019-01-11T04:26:18.692Z,83.62
2019-01-11T04:27:18.702Z,83.94
2019-01-11T04:28:18.663Z,83.94
2019-01-11T04:29:18.655Z,84.32
2019-01-11T04:30:18.651Z,84.00
2019-01-11T04:31:18.648Z,83.94
2019-01-11T04:32:18.619Z,84.46
2019-01-11T04:33:18.623Z,83.52
2019-01-11T04:34:18.606Z,83.62
2019-01-11T04:35:18.623Z,84.05
2019-01-11T04:36:18.582Z,84.00
2019-01-11T04:37:18.607Z,84.32
2019-01-11T04:38:18.562Z,83.73
2019-01-11T04:39:18.546Z,83.62
2019-01-11T04:40:18.533Z,83.90
2019-01-11T04:41:18.520Z,84.22
2019-01-11T04:42:18.521Z,83.90
2019-01-11T04:43:18.539Z,84.22
2019-01-11T04:44:18.528Z,84.63
2019-01-11T04:45:18.472Z,83.80
2019-01-11T04:46:18.470Z,84.11
2019-01-11T04:47:18.469Z,84.00
2019-01-11T04:48:18.443Z,84.36
2019-01-11T04:49:18.463Z,83.27
2019-01-11T04:50:18.443Z,83.06
2019-01-11T04:51:18.414Z,83.06
2019-01-11T04:52:18.412Z,83.38
2019-01-11T04:53:18.404Z,83.38
2019-01-11T04:54:18.393Z,83.38
2019-01-11T04:55:18.401Z,83.17
2019-01-11T04:56:18.372Z,83.48
2019-01-11T04:57:18.361Z,84.00
2019-01-11T04:58:18.347Z,83.80
2019-01-11T04:59:18.336Z,83.48
2019-01-11T05:00:18.321Z,83.65
2019-01-11T05:01:18.324Z,83.38
2019-01-11T05:02:18.295Z,84.00
2019-01-11T05:03:18.293Z,83.38
2019-01-11T05:04:18.283Z,82.75
2019-01-11T05:05:18.266Z,82.86
2019-01-11T05:06:18.260Z,83.17
2019-01-11T05:07:18.258Z,82.96
2019-01-11T05:08:18.246Z,82.58
2019-01-11T05:09:18.226Z,82.86
2019-01-11T05:10:18.213Z,83.62
2019-01-11T05:11:18.218Z,83.31
2019-01-11T05:12:18.192Z,83.38
2019-01-11T05:13:18.209Z,83.48
2019-01-11T05:14:18.175Z,83.27
2019-01-11T05:15:18.167Z,83.38
2019-01-11T05:16:18.149Z,83.31
2019-01-11T05:17:18.143Z,83.59
2019-01-11T05:18:18.133Z,83.27
2019-01-11T05:19:18.155Z,82.96
2019-01-11T05:20:18.105Z,83.17
2019-01-11T05:21:18.101Z,82.06
2019-01-11T05:22:18.082Z,83.00
2019-01-11T05:23:18.089Z,82.54
2019-01-11T05:24:18.072Z,83.06
2019-01-11T05:25:18.089Z,82.96
2019-01-11T05:26:18.050Z,83.17
2019-01-11T05:27:18.042Z,83.69
2019-01-11T05:28:18.023Z,83.69
2019-01-11T05:29:18.008Z,83.86
2019-01-11T05:30:17.995Z,82.86
2019-01-11T05:31:18.008Z,82.86
2019-01-11T05:32:17.979Z,82.43
2019-01-11T05:33:17.966Z,82.23
2019-01-11T05:34:17.959Z,81.92
2019-01-11T05:35:17.946Z,82.43
2019-01-11T05:36:17.934Z,81.70
2019-01-11T05:37:17.946Z,82.02
2019-01-11T05:38:17.916Z,81.92
2019-01-11T05:39:17.911Z,82.12
2019-01-11T05:40:17.906Z,82.02
2019-01-11T05:41:17.887Z,81.81
2019-01-11T05:42:17.876Z,81.07
2019-01-11T05:43:17.896Z,81.39
2019-01-11T05:44:17.854Z,81.18
2019-01-11T05:45:17.843Z,82.12
2019-01-11T05:46:17.831Z,82.12
2019-01-11T05:47:17.841Z,82.02
2019-01-11T05:48:17.824Z,81.98
2019-01-11T05:49:17.841Z,81.98
2019-01-11T05:50:23.863Z,82.09
2019-01-11T05:51:18.774Z,82.65
2019-01-11T05:52:17.767Z,83.06
2019-01-11T05:53:17.757Z,82.12
2019-01-11T05:54:17.760Z,83.06
2019-01-11T05:55:17.777Z,82.33
2019-01-11T05:56:17.725Z,82.43
2019-01-11T05:57:17.711Z,81.87
2019-01-11T05:58:17.711Z,81.98
2019-01-11T05:59:17.703Z,81.04
2019-01-11T06:00:17.684Z,81.35
2019-01-11T06:01:17.689Z,82.19
2019-01-11T06:02:17.671Z,82.02
2019-01-11T06:03:17.644Z,81.92
2019-01-11T06:04:17.651Z,80.97
2019-01-11T06:05:17.625Z,81.70
2019-01-11T06:06:17.625Z,81.49
2019-01-11T06:07:17.626Z,81.15
2019-01-11T06:08:17.599Z,81.29
2019-01-11T06:09:17.593Z,81.39
2019-01-11T06:10:17.578Z,81.56
2019-01-11T06:11:17.561Z,81.46
2019-01-11T06:12:17.564Z,81.25
2019-01-11T06:13:17.559Z,81.46
2019-01-11T06:14:17.533Z,80.73
2019-01-11T06:15:17.520Z,81.15
2019-01-11T06:16:17.510Z,81.07
2019-01-11T06:17:17.507Z,81.07
2019-01-11T06:18:17.491Z,81.29
2019-01-11T06:19:17.515Z,81.15
2019-01-11T06:20:17.463Z,80.41
2019-01-11T06:21:17.468Z,81.25
2019-01-11T06:22:17.446Z,81.15
2019-01-11T06:23:17.435Z,80.52
2019-01-11T06:24:17.436Z,81.07
2019-01-11T06:25:17.453Z,81.49
2019-01-11T06:26:17.419Z,80.97
2019-01-11T06:27:17.409Z,81.39
2019-01-11T06:28:17.385Z,81.35
2019-01-11T06:29:17.372Z,81.46
2019-01-11T06:30:17.367Z,81.25
2019-01-11T06:31:17.373Z,81.46
2019-01-11T06:32:17.353Z,81.67
2019-01-11T06:33:17.337Z,81.15
2019-01-11T06:34:17.324Z,81.35
2019-01-11T06:35:17.308Z,81.15
2019-01-11T06:36:17.312Z,80.52
2019-01-11T06:37:17.327Z,80.41
2019-01-11T06:38:17.282Z,81.35
2019-01-11T06:39:17.267Z,81.15
2019-01-11T06:40:17.369Z,81.87
2019-01-11T06:41:17.382Z,81.46
2019-01-11T06:42:17.239Z,80.62
2019-01-11T06:43:17.240Z,80.10
2019-01-11T06:44:17.217Z,79.36
2019-01-11T06:45:17.217Z,79.05
2019-01-11T06:46:17.204Z,80.20
2019-01-11T06:47:18.494Z,79.89
2019-01-11T06:48:17.196Z,79.99
2019-01-11T06:49:17.179Z,80.52
2019-01-11T06:50:17.165Z,80.62
2019-01-11T06:51:17.137Z,80.10
2019-01-11T06:52:17.131Z,80.73
2019-01-11T06:53:17.129Z,79.99
2019-01-11T06:54:17.116Z,80.35
2019-01-11T06:55:17.115Z,81.29
2019-01-11T06:56:17.104Z,80.13
2019-01-11T06:57:17.087Z,80.45
2019-01-11T06:58:17.069Z,80.35
2019-01-11T06:59:17.058Z,81.18
2019-01-11T07:00:17.045Z,80.62
2019-01-11T07:01:17.048Z,80.73
2019-01-11T07:02:17.028Z,81.15
2019-01-11T07:03:17.012Z,81.04
2019-01-11T07:04:16.996Z,80.83
2019-01-11T07:05:16.993Z,80.79
2019-01-11T07:06:16.974Z,79.85
2019-01-11T07:07:16.984Z,79.96
2019-01-11T07:08:16.956Z,80.06
2019-01-11T07:09:16.945Z,80.06
2019-01-11T07:10:16.938Z,80.06
2019-01-11T07:11:16.920Z,80.58
2019-01-11T07:12:16.925Z,80.06
2019-01-11T07:13:16.940Z,79.96
2019-01-11T07:14:16.897Z,79.75
2019-01-11T07:15:16.891Z,79.75
2019-01-11T07:16:16.870Z,79.22
2019-01-11T07:17:16.862Z,79.64
2019-01-11T07:18:16.849Z,80.06
2019-01-11T07:19:16.849Z,79.96
2019-01-11T07:20:16.858Z,79.75
2019-01-11T07:21:16.825Z,80.10
2019-01-11T07:22:16.814Z,79.99
2019-01-11T07:23:16.808Z,79.47
2019-01-11T07:24:16.793Z,80.52
2019-01-11T07:25:16.801Z,80.31
2019-01-11T07:26:16.782Z,81.04
2019-01-11T07:27:16.756Z,80.52
2019-01-11T07:28:16.752Z,79.99
2019-01-11T07:29:16.746Z,79.16
2019-01-11T07:30:16.731Z,78.95
2019-01-11T07:31:16.737Z,78.53
2019-01-11T07:32:16.715Z,80.10
2019-01-11T07:33:16.693Z,80.52
2019-01-11T07:34:16.750Z,80.10
2019-01-11T07:35:16.682Z,79.40
2019-01-11T07:36:16.702Z,80.03
2019-01-11T07:37:16.681Z,80.24
2019-01-11T07:38:16.635Z,79.96
2019-01-11T07:39:16.638Z,81.39
2019-01-11T07:40:16.635Z,80.24
2019-01-11T07:41:16.603Z,79.93
2019-01-11T07:42:16.597Z,80.66
2019-01-11T07:43:16.632Z,80.55
2019-01-11T07:44:16.588Z,80.20
2019-01-11T07:45:16.568Z,80.03
2019-01-11T07:46:16.551Z,80.13
2019-01-11T07:47:16.551Z,80.41
2019-01-11T07:48:16.532Z,80.20
2019-01-11T07:49:22.989Z,80.41
2019-01-11T07:50:17.512Z,80.93
2019-01-11T07:51:16.510Z,79.79
2019-01-11T07:52:16.495Z,79.99
2019-01-11T07:53:16.500Z,79.89
2019-01-11T07:54:16.477Z,77.94
2019-01-11T07:55:16.474Z,79.82
2019-01-11T07:56:16.468Z,80.03
2019-01-11T07:57:16.446Z,79.82
2019-01-11T07:58:16.447Z,79.99
2019-01-11T07:59:16.419Z,80.52
2019-01-11T08:00:16.407Z,80.31
2019-01-11T08:01:16.412Z,79.89
2019-01-11T08:02:16.392Z,80.31
2019-01-11T08:03:24.877Z,79.89
2019-01-11T08:04:16.367Z,79.50
2019-01-11T08:05:16.380Z,80.03
2019-01-11T08:06:16.342Z,79.36
2019-01-11T08:07:16.353Z,79.99
2019-01-11T08:08:16.316Z,79.89
2019-01-11T08:09:16.313Z,78.85
2019-01-11T08:10:16.308Z,78.85
2019-01-11T08:11:16.294Z,78.42
2019-01-11T08:12:16.284Z,78.18
2019-01-11T08:13:16.310Z,77.48
2019-01-11T08:14:16.262Z,76.86
2019-01-11T08:15:16.295Z,77.48
2019-01-11T08:16:16.242Z,78.11
2019-01-11T08:17:16.233Z,79.05
2019-01-11T08:18:16.221Z,77.24
2019-01-11T08:19:16.221Z,76.86
2019-01-11T08:20:16.205Z,78.08
2019-01-11T08:21:16.182Z,78.01
2019-01-11T08:22:16.179Z,78.32
2019-01-11T08:23:16.230Z,78.56
2019-01-11T08:24:17.358Z,79.36
2019-01-11T08:25:16.167Z,80.20
2019-01-11T08:26:16.135Z,79.33
2019-01-11T08:27:16.122Z,77.97
2019-01-11T08:28:16.112Z,76.51
2019-01-11T08:29:16.099Z,76.82
2019-01-11T08:30:16.782Z,77.87
2019-01-11T08:31:16.097Z,76.82
2019-01-11T08:32:16.090Z,76.33
2019-01-11T08:33:18.697Z,77.87
2019-01-11T08:34:16.104Z,77.76
2019-01-11T08:35:16.049Z,77.76
2019-01-11T08:36:16.034Z,76.44
2019-01-11T08:37:16.040Z,77.80
2019-01-11T08:38:16.025Z,77.45
2019-01-11T08:39:15.996Z,76.20
2019-01-11T08:40:15.996Z,76.30
2019-01-11T08:41:15.970Z,76.20
2019-01-11T08:42:15.976Z,76.06
2019-01-11T08:43:15.964Z,76.09
2019-01-11T08:44:15.963Z,76.61
2019-01-11T08:45:15.946Z,76.16
2019-01-11T08:46:15.925Z,76.06
2019-01-11T08:47:15.917Z,74.91
2019-01-11T08:48:15.916Z,75.57
2019-01-11T08:49:15.915Z,75.85
2019-01-11T08:50:15.883Z,74.91
2019-01-11T08:51:15.873Z,76.37
2019-01-11T08:52:15.862Z,76.44
2019-01-11T08:53:15.858Z,75.39
2019-01-11T08:54:15.840Z,75.43
2019-01-11T08:55:15.953Z,76.37
2019-01-11T08:56:15.817Z,76.37
2019-01-11T08:57:15.811Z,77.10
2019-01-11T08:58:15.809Z,77.48
2019-01-11T08:59:15.795Z,76.44
2019-01-11T09:00:15.779Z,77.17
2019-01-11T09:01:15.789Z,75.71
2019-01-11T09:02:15.757Z,74.98
2019-01-11T09:03:15.743Z,75.71
2019-01-11T09:04:15.734Z,74.87
2019-01-11T09:05:15.731Z,73.30
2019-01-11T09:06:15.712Z,73.83
2019-01-11T09:07:15.750Z,76.44
2019-01-11T09:08:15.709Z,75.08
2019-01-11T09:09:15.699Z,76.44
2019-01-11T09:10:22.423Z,76.86
2019-01-11T09:11:16.663Z,76.54
2019-01-11T09:12:15.661Z,76.40
2019-01-11T09:13:15.664Z,76.61
2019-01-11T09:14:15.636Z,75.98
2019-01-11T09:15:15.618Z,75.74
2019-01-11T09:16:20.694Z,73.97
2019-01-11T09:17:16.611Z,72.41
2019-01-11T09:18:15.588Z,74.80
2019-01-11T09:19:15.593Z,75.71
2019-01-11T09:20:15.568Z,76.23
2019-01-11T09:21:15.567Z,74.35
2019-01-11T09:22:15.551Z,75.18
2019-01-11T09:23:15.535Z,73.62
2019-01-11T09:24:15.528Z,73.38
2019-01-11T09:25:15.626Z,73.90
2019-01-11T09:26:15.514Z,74.98
2019-01-11T09:27:15.499Z,76.23
2019-01-11T09:28:15.491Z,74.70
2019-01-11T09:29:15.475Z,75.95
2019-01-11T09:30:15.467Z,76.26
2019-01-11T09:31:15.477Z,75.32
2019-01-11T09:32:15.444Z,75.18
2019-01-11T09:33:20.478Z,76.02
2019-01-11T09:34:16.430Z,75.08
2019-01-11T09:35:15.413Z,74.74
2019-01-11T09:36:15.403Z,75.60
2019-01-11T09:37:16.268Z,75.60
2019-01-11T09:38:16.129Z,74.98
2019-01-11T09:39:15.384Z,74.04
2019-01-11T09:40:15.376Z,74.04
2019-01-11T09:41:15.355Z,74.15
2019-01-11T09:42:15.342Z,74.87
2019-01-11T09:43:15.429Z,73.21
2019-01-11T09:44:15.315Z,73.62
2019-01-11T09:45:15.309Z,75.08
2019-01-11T09:46:15.301Z,75.71
2019-01-11T09:47:15.286Z,75.08
2019-01-11T09:48:15.281Z,74.98
2019-01-11T09:49:15.300Z,73.83
2019-01-11T09:50:15.249Z,74.35
2019-01-11T09:51:15.857Z,75.18
2019-01-11T09:52:15.236Z,75.22
2019-01-11T09:53:15.226Z,74.98
2019-01-11T09:54:15.215Z,74.35
2019-01-11T09:55:15.314Z,73.27
2019-01-11T09:56:15.197Z,73.17
2019-01-11T09:57:15.182Z,72.51
2019-01-11T09:58:15.173Z,72.06
2019-01-11T09:59:15.162Z,71.12
2019-01-11T10:00:15.153Z,71.23
2019-01-11T10:01:15.155Z,70.71
2019-01-11T10:02:15.165Z,71.96
2019-01-11T10:03:15.118Z,71.44
2019-01-11T10:04:15.104Z,72.69
2019-01-11T10:05:15.101Z,69.46
2019-01-11T10:06:15.093Z,69.15
2019-01-11T10:07:15.098Z,70.32
2019-01-11T10:08:15.064Z,72.48
2019-01-11T10:09:15.058Z,70.92
2019-01-11T10:10:15.046Z,68.84
2019-01-11T10:11:15.028Z,69.87
2019-01-11T10:12:15.024Z,70.92
2019-01-11T10:13:15.124Z,72.20
2019-01-11T10:14:15.001Z,71.26
2019-01-11T10:15:14.993Z,71.58
2019-01-11T10:16:14.982Z,71.58
2019-01-11T10:17:14.970Z,71.47
2019-01-11T10:18:14.954Z,72.72
2019-01-11T10:19:14.971Z,73.45
2019-01-11T10:20:14.954Z,73.03
2019-01-11T10:21:14.928Z,72.65
2019-01-11T10:22:14.913Z,71.16
2019-01-11T10:23:14.909Z,71.16
2019-01-11T10:24:14.905Z,71.89
2019-01-11T10:25:14.999Z,71.89
2019-01-11T10:26:14.874Z,71.16
2019-01-11T10:27:14.866Z,71.58
2019-01-11T10:28:14.854Z,71.89
2019-01-11T10:29:14.842Z,71.58
2019-01-11T10:30:14.828Z,70.74
2019-01-11T10:31:14.840Z,72.51
2019-01-11T10:32:14.805Z,72.62
2019-01-11T10:33:14.799Z,72.27
2019-01-11T10:34:14.786Z,69.98
2019-01-11T10:35:14.784Z,71.16
2019-01-11T10:36:14.774Z,70.64
2019-01-11T10:37:14.776Z,70.78
2019-01-11T10:38:14.747Z,72.51
2019-01-11T10:39:14.738Z,73.14
2019-01-11T10:40:14.725Z,72.93
2019-01-11T10:41:14.719Z,71.05
2019-01-11T10:42:14.712Z,71.02
2019-01-11T10:43:14.721Z,71.44
2019-01-11T10:44:14.689Z,71.23
2019-01-11T10:45:14.670Z,72.38
2019-01-11T10:46:14.667Z,71.26
2019-01-11T10:47:14.656Z,73.86
2019-01-11T10:48:14.655Z,73.97
2019-01-11T10:49:14.652Z,73.24
2019-01-11T10:50:14.620Z,73.10
2019-01-11T10:51:14.613Z,72.89
2019-01-11T10:52:14.601Z,73.42
2019-01-11T10:53:14.588Z,71.44
2019-01-11T10:54:14.585Z,69.15
2019-01-11T10:55:14.591Z,70.92
2019-01-11T10:56:14.569Z,71.54
2019-01-11T10:57:14.548Z,69.15
2019-01-11T10:58:14.540Z,69.67
2019-01-11T10:59:14.530Z,72.86
2019-01-11T11:00:14.531Z,74.21
2019-01-11T11:01:14.527Z,74.70
2019-01-11T11:02:14.498Z,70.75
2019-01-11T11:03:14.489Z,73.25
2019-01-11T11:04:14.479Z,70.82
2019-01-11T11:05:14.466Z,69.50
2019-01-11T11:06:14.912Z,69.26
2019-01-11T11:07:14.574Z,69.37
2019-01-11T11:08:14.482Z,68.22
2019-01-11T11:09:14.429Z,67.18
2019-01-11T11:10:14.419Z,65.13
2019-01-11T11:11:16.647Z,64.61
2019-01-11T11:12:14.396Z,65.65
2019-01-11T11:13:14.408Z,64.61
2019-01-11T11:14:14.374Z,67.73
2019-01-11T11:15:14.367Z,68.88
2019-01-11T11:16:14.354Z,69.40
2019-01-11T11:17:14.348Z,69.19
2019-01-11T11:18:14.337Z,71.17
2019-01-11T11:19:14.338Z,68.88
2019-01-11T11:20:14.328Z,68.98
2019-01-11T11:21:14.303Z,67.21
2019-01-11T11:22:14.294Z,66.17
2019-01-11T11:23:14.283Z,67.21
2019-01-11T11:24:14.280Z,68.46
2019-01-11T11:25:14.361Z,69.19
2019-01-11T11:26:14.252Z,68.46
2019-01-11T11:27:14.235Z,65.83
2019-01-11T11:28:14.236Z,67.08
2019-01-11T11:29:14.220Z,67.18
2019-01-11T11:30:14.204Z,68.63
2019-01-11T11:31:14.213Z,69.15
2019-01-11T11:32:14.185Z,70.82
2019-01-11T11:33:14.178Z,70.82
2019-01-11T11:34:14.166Z,68.84
2019-01-11T11:35:14.158Z,69.29
2019-01-11T11:36:14.146Z,70.61
2019-01-11T11:37:17.740Z,69.26
2019-01-11T11:38:14.127Z,68.95
2019-01-11T11:39:14.111Z,68.98
2019-01-11T11:40:14.105Z,70.09
2019-01-11T11:41:14.096Z,70.75
2019-01-11T11:42:16.877Z,71.58
2019-01-11T11:43:14.097Z,70.40
2019-01-11T11:44:14.063Z,68.95
2019-01-11T11:45:14.052Z,68.77
2019-01-11T11:46:14.049Z,68.74
2019-01-11T11:47:14.031Z,68.84
2019-01-11T11:48:14.026Z,70.40
2019-01-11T11:49:14.026Z,70.82
2019-01-11T11:50:14.018Z,70.95
2019-01-11T11:51:13.997Z,69.40
2019-01-11T11:52:13.977Z,68.46
2019-01-11T11:53:13.976Z,70.40
2019-01-11T11:54:13.957Z,70.64
2019-01-11T11:55:13.962Z,68.43
2019-01-11T11:56:13.936Z,67.49
2019-01-11T11:57:13.925Z,68.43
2019-01-11T11:58:13.927Z,68.88
2019-01-11T11:59:13.908Z,68.46
2019-01-11T12:00:13.891Z,68.35
2019-01-11T12:01:13.905Z,69.09
2019-01-11T12:02:19.291Z,68.56
2019-01-11T12:03:14.860Z,67.42
2019-01-11T12:04:13.860Z,67.00
2019-01-11T12:05:13.847Z,67.11
2019-01-11T12:06:13.835Z,67.11
2019-01-11T12:07:13.847Z,67.52
2019-01-11T12:08:13.825Z,68.98
2019-01-11T12:09:13.799Z,68.88
2019-01-11T12:10:13.793Z,68.66
2019-01-11T12:11:13.822Z,66.93
2019-01-11T12:12:13.779Z,66.93
2019-01-11T12:13:13.783Z,67.00
2019-01-11T12:14:13.745Z,66.51
2019-01-11T12:15:13.744Z,67.55
2019-01-11T12:16:13.733Z,66.90
2019-01-11T12:17:13.714Z,68.77
2019-01-11T12:18:13.728Z,68.88
2019-01-11T12:19:13.719Z,67.52
2019-01-11T12:20:13.703Z,67.32
2019-01-11T12:21:13.681Z,68.70
2019-01-11T12:22:13.665Z,68.70
2019-01-11T12:23:13.655Z,69.32
2019-01-11T12:24:13.645Z,69.22
2019-01-11T12:25:13.671Z,68.25
2019-01-11T12:26:13.752Z,69.50
2019-01-11T12:27:13.618Z,71.17
2019-01-11T12:28:13.612Z,68.56
2019-01-11T12:29:13.602Z,70.85
2019-01-11T12:30:13.588Z,71.17
2019-01-11T12:31:13.615Z,72.52
2019-01-11T12:32:19.431Z,71.92
2019-01-11T12:33:14.558Z,71.41
2019-01-11T12:34:13.536Z,70.47
2019-01-11T12:35:13.533Z,70.26
2019-01-11T12:36:13.519Z,69.64
2019-01-11T12:37:13.546Z,67.83
2019-01-11T12:38:13.911Z,68.77
2019-01-11T12:39:13.491Z,70.75
2019-01-11T12:40:13.481Z,69.60
2019-01-11T12:41:13.468Z,68.98
2019-01-11T12:42:13.456Z,69.71
2019-01-11T12:43:13.520Z,69.50
2019-01-11T12:44:13.440Z,69.60
2019-01-11T12:45:13.429Z,69.19
2019-01-11T12:46:13.419Z,69.19
2019-01-11T12:47:13.409Z,69.71
2019-01-11T12:48:13.428Z,70.95
2019-01-11T12:49:13.402Z,69.29
2019-01-11T12:50:13.383Z,69.84
2019-01-11T12:51:13.367Z,68.70
2019-01-11T12:52:13.354Z,67.35